createdAt,value
2023-05-02T00:02:08.769Z,10.55
2023-05-02T00:04:38.199Z,10.51
2023-05-02T00:07:06.873Z,10.89
2023-05-02T00:09:35.638Z,11.08
2023-05-02T00:12:04.008Z,11.15
2023-05-02T00:14:31.804Z,11.25
2023-05-02T00:17:00.104Z,11.54
2023-05-02T00:19:27.989Z,11.54
2023-05-02T00:21:57.366Z,11.48
2023-05-02T00:24:25.227Z,11.51
2023-05-02T00:26:52.934Z,11.63
2023-05-02T00:29:20.902Z,11.64
2023-05-02T00:31:48.608Z,11.63
2023-05-02T00:34:16.381Z,11.63
2023-05-02T00:36:44.232Z,11.50
2023-05-02T00:39:13.404Z,11.45
2023-05-02T00:41:41.242Z,11.33
2023-05-02T00:44:09.540Z,11.38
2023-05-02T00:46:37.466Z,11.20
2023-05-02T00:49:05.617Z,11.21
2023-05-02T00:51:34.149Z,11.23
2023-05-02T00:54:02.260Z,11.14
2023-05-02T00:56:31.528Z,11.08
2023-05-02T00:58:59.498Z,11.16
2023-05-02T01:01:38.005Z,11.08
2023-05-02T01:04:19.984Z,11.20
2023-05-02T01:07:00.748Z,11.03
2023-05-02T01:09:39.211Z,11.08
2023-05-02T01:12:20.783Z,11.18
2023-05-02T01:14:54.371Z,11.24
2023-05-02T01:17:28.246Z,11.31
2023-05-02T01:20:00.351Z,11.38
2023-05-02T01:22:30.491Z,11.45
2023-05-02T01:25:06.725Z,11.42
2023-05-02T01:27:44.896Z,11.23
2023-05-02T01:30:15.957Z,11.24
2023-05-02T01:32:47.195Z,11.17
2023-05-02T01:35:17.417Z,11.09
2023-05-02T01:37:47.857Z,11.07
2023-05-02T01:40:19.470Z,11.19
2023-05-02T01:42:49.527Z,11.17
2023-05-02T01:45:20.129Z,11.43
2023-05-02T01:47:48.927Z,11.38
2023-05-02T01:50:20.229Z,11.39
2023-05-02T01:52:50.058Z,11.31
2023-05-02T01:55:19.440Z,11.30
2023-05-02T01:57:50.538Z,11.24
2023-05-02T02:00:21.465Z,11.24
2023-05-02T02:02:52.226Z,11.25
2023-05-02T02:05:21.791Z,11.27
2023-05-02T02:07:49.656Z,11.29
2023-05-02T02:10:19.163Z,11.41
2023-05-02T02:12:54.065Z,11.38
2023-05-02T02:15:32.023Z,11.28
2023-05-02T02:18:02.504Z,11.40
2023-05-02T02:20:32.191Z,11.29
2023-05-02T02:23:01.974Z,11.48
2023-05-02T02:25:30.639Z,11.39
2023-05-02T02:27:58.744Z,11.29
2023-05-02T02:30:28.039Z,11.60
2023-05-02T02:32:55.837Z,11.47
2023-05-02T02:35:24.501Z,11.33
2023-05-02T02:37:59.651Z,11.33
2023-05-02T02:40:32.652Z,11.26
2023-05-02T02:43:09.128Z,11.36
2023-05-02T02:45:43.205Z,11.42
2023-05-02T02:48:28.090Z,11.31
2023-05-02T02:51:04.747Z,11.40
2023-05-02T02:53:41.366Z,11.57
2023-05-02T02:56:17.471Z,11.54
2023-05-02T02:58:55.017Z,11.31
2023-05-02T03:01:28.170Z,11.28
2023-05-02T03:03:57.673Z,11.25
2023-05-02T03:06:27.413Z,11.32
2023-05-02T03:08:56.603Z,11.22
2023-05-02T03:11:29.814Z,11.23
2023-05-02T03:13:59.618Z,11.35
2023-05-02T03:16:36.947Z,11.23
2023-05-02T03:19:08.328Z,11.26
2023-05-02T03:21:37.905Z,11.11
2023-05-02T03:24:16.620Z,11.20
2023-05-02T03:26:47.687Z,11.24
2023-05-02T03:29:17.548Z,11.17
2023-05-02T03:31:47.149Z,11.29
2023-05-02T03:34:15.449Z,11.31
2023-05-02T03:36:46.524Z,11.29
2023-05-02T03:39:14.448Z,11.30
2023-05-02T03:41:43.959Z,11.34
2023-05-02T03:44:15.775Z,11.32
2023-05-02T03:46:43.816Z,11.30
2023-05-02T03:49:14.703Z,11.39
2023-05-02T03:51:45.432Z,11.42
2023-05-02T03:54:14.397Z,11.41
2023-05-02T03:56:44.666Z,11.41
2023-05-02T03:59:27.532Z,11.45
2023-05-02T04:01:55.445Z,11.48
2023-05-02T04:04:33.551Z,11.48
2023-05-02T04:07:02.280Z,11.49
2023-05-02T04:09:31.201Z,11.82
2023-05-02T04:12:06.147Z,11.81
2023-05-02T04:14:35.800Z,11.56
2023-05-02T04:17:04.156Z,11.53
2023-05-02T04:19:53.107Z,11.74
2023-05-02T04:22:24.984Z,11.47
2023-05-02T04:24:57.882Z,11.53
2023-05-02T04:27:26.990Z,11.43
2023-05-02T04:29:54.951Z,11.40
2023-05-02T04:32:24.853Z,11.37
2023-05-02T04:34:54.816Z,11.53
2023-05-02T04:37:24.051Z,11.65
2023-05-02T04:39:51.950Z,11.37
2023-05-02T04:42:24.307Z,11.25
2023-05-02T04:45:02.441Z,11.30
2023-05-02T04:47:31.022Z,11.17
2023-05-02T04:50:00.745Z,11.04
2023-05-02T04:52:29.780Z,11.07
2023-05-02T04:54:57.617Z,11.07
2023-05-02T04:57:27.037Z,11.29
2023-05-02T04:59:59.002Z,11.24
2023-05-02T05:02:28.005Z,11.10
2023-05-02T05:04:57.404Z,10.98
2023-05-02T05:07:26.826Z,10.91
2023-05-02T05:09:55.860Z,10.94
2023-05-02T05:12:26.203Z,11.15
2023-05-02T05:14:54.797Z,11.10
2023-05-02T05:17:24.882Z,11.14
2023-05-02T05:19:53.430Z,11.13
2023-05-02T05:22:21.911Z,11.02
2023-05-02T05:24:55.102Z,11.04
2023-05-02T05:27:27.701Z,11.25
2023-05-02T05:29:55.793Z,11.00
2023-05-02T05:32:24.244Z,10.92
2023-05-02T05:34:53.127Z,10.78
2023-05-02T05:37:23.083Z,10.80
2023-05-02T05:39:50.881Z,10.79
2023-05-02T05:42:20.130Z,10.87
2023-05-02T05:44:51.491Z,10.85
2023-05-02T05:47:23.010Z,10.76
2023-05-02T05:49:54.386Z,11.04
2023-05-02T05:52:24.026Z,10.99
2023-05-02T05:54:55.519Z,10.90
2023-05-02T05:57:27.283Z,10.92
2023-05-02T05:59:57.241Z,10.86
2023-05-02T06:02:25.645Z,10.85
2023-05-02T06:04:53.783Z,11.03
2023-05-02T06:07:24.419Z,11.15
2023-05-02T06:09:52.136Z,10.87
2023-05-02T06:12:20.069Z,10.86
2023-05-02T06:14:50.721Z,10.89
2023-05-02T06:17:18.657Z,10.96
2023-05-02T06:19:46.388Z,10.99
2023-05-02T06:22:14.179Z,11.02
2023-05-02T06:24:41.952Z,10.99
2023-05-02T06:27:09.766Z,11.01
2023-05-02T06:29:37.709Z,11.00
2023-05-02T06:32:08.129Z,10.92
2023-05-02T06:34:35.892Z,10.95
2023-05-02T06:37:03.660Z,10.79
2023-05-02T06:39:31.370Z,10.90
2023-05-02T06:41:59.558Z,10.97
2023-05-02T06:44:28.678Z,11.03
2023-05-02T06:46:56.550Z,11.04
2023-05-02T06:49:27.230Z,11.40
2023-05-02T06:51:54.986Z,11.30
2023-05-02T06:54:22.766Z,11.11
2023-05-02T06:56:50.585Z,11.34
2023-05-02T06:59:18.356Z,11.15
2023-05-02T07:01:46.052Z,11.34
2023-05-02T07:04:13.903Z,11.09
2023-05-02T07:06:43.142Z,10.94
2023-05-02T07:09:11.013Z,10.96
2023-05-02T07:11:38.642Z,10.90
2023-05-02T07:14:06.479Z,10.77
2023-05-02T07:16:34.527Z,11.01
2023-05-02T07:19:04.672Z,10.94
2023-05-02T07:21:32.501Z,10.87
2023-05-02T07:24:02.250Z,10.86
2023-05-02T07:26:30.015Z,10.68
2023-05-02T07:28:57.901Z,10.77
2023-05-02T07:31:25.801Z,10.88
2023-05-02T07:33:53.608Z,10.76
2023-05-02T07:36:21.318Z,11.00
2023-05-02T07:38:49.044Z,10.64
2023-05-02T07:41:18.284Z,10.73
2023-05-02T07:43:46.263Z,10.69
2023-05-02T07:46:14.012Z,10.82
2023-05-02T07:48:42.727Z,10.73
2023-05-02T07:51:11.835Z,10.74
2023-05-02T07:53:39.678Z,10.89
2023-05-02T07:56:08.876Z,10.96
2023-05-02T07:58:38.396Z,10.80
2023-05-02T08:01:06.356Z,10.64
2023-05-02T08:03:34.439Z,10.65
2023-05-02T08:06:04.147Z,10.66
2023-05-02T08:08:32.013Z,10.60
2023-05-02T08:10:59.871Z,11.09
2023-05-02T08:13:28.582Z,10.79
2023-05-02T08:15:58.572Z,10.97
2023-05-02T08:18:26.388Z,10.77
2023-05-02T08:20:54.228Z,10.68
2023-05-02T08:23:22.166Z,10.69
2023-05-02T08:25:49.906Z,10.84
2023-05-02T08:28:18.596Z,10.84
2023-05-02T08:30:46.492Z,10.69
2023-05-02T08:33:16.015Z,10.51
2023-05-02T08:35:44.064Z,10.38
2023-05-02T08:38:11.833Z,10.42
2023-05-02T08:40:42.647Z,10.49
2023-05-02T08:43:13.063Z,10.37
2023-05-02T08:45:42.228Z,10.55
2023-05-02T08:48:12.739Z,10.51
2023-05-02T08:50:44.512Z,10.31
2023-05-02T08:56:15.589Z,10.60
2023-05-02T08:58:43.262Z,10.49
2023-05-02T09:01:14.100Z,10.77
2023-05-02T09:03:43.887Z,10.78
2023-05-02T09:06:16.441Z,10.84
2023-05-02T09:08:45.778Z,11.11
2023-05-02T09:11:14.333Z,11.07
2023-05-02T09:13:43.257Z,11.12
2023-05-02T09:16:12.366Z,11.00
2023-05-02T09:18:41.676Z,10.95
2023-05-02T09:21:12.337Z,11.07
2023-05-02T09:23:43.134Z,11.34
2023-05-02T09:26:15.941Z,11.19
2023-05-02T09:28:45.560Z,11.37
2023-05-02T09:31:18.756Z,11.46
2023-05-02T09:33:51.006Z,11.64
2023-05-02T09:36:22.452Z,11.82
2023-05-02T09:38:51.971Z,11.72
2023-05-02T09:41:21.001Z,11.77
2023-05-02T09:43:57.222Z,11.48
2023-05-02T09:46:25.277Z,11.98
2023-05-02T09:48:56.134Z,11.81
2023-05-02T09:51:25.587Z,11.92
2023-05-02T09:53:55.991Z,11.91
2023-05-02T09:56:24.813Z,12.10
2023-05-02T09:59:12.846Z,11.83
2023-05-02T10:01:42.556Z,11.64
2023-05-02T10:04:16.275Z,11.61
2023-05-02T10:06:45.213Z,11.66
2023-05-02T10:09:19.789Z,11.52
2023-05-02T10:11:53.997Z,11.40
2023-05-02T10:14:23.377Z,11.43
2023-05-02T10:16:59.189Z,11.56
2023-05-02T10:19:31.424Z,11.55
2023-05-02T10:22:00.110Z,11.38
2023-05-02T10:24:29.792Z,11.49
2023-05-02T10:26:57.945Z,11.66
2023-05-02T10:29:28.577Z,11.42
2023-05-02T10:31:58.998Z,11.50
2023-05-02T10:34:29.055Z,11.29
2023-05-02T10:37:01.202Z,11.40
2023-05-02T10:39:33.133Z,11.17
2023-05-02T10:42:03.487Z,11.51
2023-05-02T10:44:35.223Z,11.02
2023-05-02T10:47:03.355Z,11.36
2023-05-02T10:49:31.220Z,11.33
2023-05-02T10:51:58.974Z,11.50
2023-05-02T10:54:27.175Z,11.25
2023-05-02T10:57:09.273Z,11.45
2023-05-02T10:59:38.637Z,11.33
2023-05-02T11:02:28.165Z,11.54
2023-05-02T11:05:04.594Z,11.58
2023-05-02T11:07:33.614Z,11.35
2023-05-02T11:10:27.782Z,11.70
2023-05-02T11:13:01.080Z,11.66
2023-05-02T11:16:00.230Z,11.76
2023-05-02T11:18:27.994Z,11.46
2023-05-02T11:21:29.946Z,11.69
2023-05-02T11:24:35.247Z,11.90
2023-05-02T11:27:40.956Z,11.87
2023-05-02T11:30:12.799Z,11.89
2023-05-02T11:33:19.850Z,12.10
2023-05-02T11:35:49.351Z,12.18
2023-05-02T11:38:22.636Z,12.46
2023-05-02T11:40:52.254Z,12.44
2023-05-02T11:43:22.332Z,12.39
2023-05-02T11:45:51.822Z,12.29
2023-05-02T11:48:22.656Z,12.31
2023-05-02T11:50:52.506Z,12.44
2023-05-02T11:53:23.474Z,12.59
2023-05-02T11:55:52.745Z,12.63
2023-05-02T11:58:23.995Z,12.52
2023-05-02T12:00:54.383Z,12.73
2023-05-02T12:03:23.903Z,12.84
2023-05-02T12:05:52.295Z,12.93
2023-05-02T12:08:21.883Z,12.66
2023-05-02T12:10:51.896Z,12.88
2023-05-02T12:13:20.654Z,13.11
2023-05-02T12:15:49.717Z,13.13
2023-05-02T12:18:22.085Z,12.71
2023-05-02T12:20:51.227Z,12.67
2023-05-02T12:23:19.557Z,12.53
2023-05-02T12:25:48.198Z,12.38
2023-05-02T12:28:18.919Z,12.78
2023-05-02T12:30:49.010Z,12.69
2023-05-02T12:33:18.883Z,12.60
2023-05-02T12:35:48.027Z,12.48
2023-05-02T12:38:17.182Z,12.59
2023-05-02T12:40:50.428Z,12.62
2023-05-02T12:43:18.352Z,12.60
2023-05-02T12:45:48.270Z,12.49
2023-05-02T12:48:22.491Z,12.52
2023-05-02T12:50:51.085Z,12.43
2023-05-02T12:53:18.958Z,12.64
2023-05-02T12:55:46.928Z,12.76
2023-05-02T12:58:14.704Z,12.70
2023-05-02T13:00:45.654Z,12.62
2023-05-02T13:03:15.045Z,12.72
2023-05-02T13:05:45.021Z,12.80
2023-05-02T13:08:13.098Z,12.59
2023-05-02T13:10:40.834Z,13.03
2023-05-02T13:13:08.536Z,12.82
2023-05-02T13:15:36.238Z,12.87
2023-05-02T13:18:04.372Z,13.04
2023-05-02T13:20:32.398Z,13.06
2023-05-02T13:23:01.440Z,13.21
2023-05-02T13:25:29.419Z,13.28
2023-05-02T13:27:57.139Z,13.17
2023-05-02T13:30:25.350Z,13.53
2023-05-02T13:32:53.316Z,13.76
2023-05-02T13:35:21.517Z,13.52
2023-05-02T13:37:49.219Z,13.45
2023-05-02T13:40:18.537Z,13.51
2023-05-02T13:42:46.446Z,13.15
2023-05-02T13:45:14.736Z,13.02
2023-05-02T13:47:42.602Z,13.10
2023-05-02T13:50:10.631Z,13.42
2023-05-02T13:52:38.701Z,13.40
2023-05-02T13:55:07.338Z,13.89
2023-05-02T13:57:36.488Z,13.79
2023-05-02T14:00:05.747Z,13.91
2023-05-02T14:02:33.830Z,13.96
2023-05-02T14:05:01.624Z,13.45
2023-05-02T14:07:29.659Z,13.62
2023-05-02T14:09:57.692Z,13.66
2023-05-02T14:12:25.724Z,13.65
2023-05-02T14:14:54.913Z,13.57
2023-05-02T14:17:25.058Z,14.06
2023-05-02T14:19:52.824Z,14.19
2023-05-02T14:22:21.117Z,13.99
2023-05-02T14:24:48.966Z,13.79
2023-05-02T14:27:19.063Z,13.83
2023-05-02T14:29:47.519Z,14.31
2023-05-02T14:32:17.258Z,14.10
2023-05-02T14:34:45.265Z,13.72
2023-05-02T14:37:13.154Z,13.66
2023-05-02T14:39:42.510Z,13.67
2023-05-02T14:42:10.356Z,13.85
2023-05-02T14:44:38.034Z,14.25
2023-05-02T14:47:05.904Z,14.29
2023-05-02T14:49:35.221Z,14.64
2023-05-02T14:52:03.316Z,14.22
2023-05-02T14:54:31.503Z,14.27
2023-05-02T14:56:59.896Z,14.02
2023-05-02T14:59:29.899Z,14.27
2023-05-02T15:01:58.261Z,14.13
2023-05-02T15:04:27.784Z,14.05
2023-05-02T15:06:58.332Z,13.91
2023-05-02T15:09:27.174Z,14.17
2023-05-02T15:11:54.924Z,14.35
2023-05-02T15:14:22.838Z,14.39
2023-05-02T15:16:50.864Z,14.19
2023-05-02T15:19:18.640Z,13.96
2023-05-02T15:21:46.388Z,14.24
2023-05-02T15:24:15.653Z,14.18
2023-05-02T15:26:43.373Z,14.17
2023-05-02T15:29:11.340Z,14.11
2023-05-02T15:31:39.200Z,14.00
2023-05-02T15:34:07.267Z,14.40
2023-05-02T15:36:37.315Z,14.22
2023-05-02T15:39:05.418Z,14.35
2023-05-02T15:41:34.854Z,14.31
2023-05-02T15:44:02.826Z,14.16
2023-05-02T15:46:30.657Z,14.42
2023-05-02T15:48:58.607Z,14.56
2023-05-02T15:51:26.890Z,14.08
2023-05-02T15:53:55.526Z,14.10
2023-05-02T15:56:23.397Z,14.29
2023-05-02T15:58:52.608Z,13.88
2023-05-02T16:01:24.120Z,13.93
2023-05-02T16:03:52.583Z,14.11
2023-05-02T16:06:20.483Z,14.14
2023-05-02T16:08:48.248Z,14.19
2023-05-02T16:11:16.093Z,14.03
2023-05-02T16:13:43.903Z,13.87
2023-05-02T16:16:13.251Z,13.75
2023-05-02T16:18:41.145Z,13.95
2023-05-02T16:21:09.076Z,13.85
2023-05-02T16:23:36.813Z,13.89
2023-05-02T16:26:04.714Z,13.77
2023-05-02T16:28:32.444Z,13.96
2023-05-02T16:31:00.319Z,13.70
2023-05-02T16:33:29.945Z,13.71
2023-05-02T16:36:04.544Z,13.56
2023-05-02T16:38:32.730Z,13.98
2023-05-02T16:41:04.395Z,13.74
2023-05-02T16:43:32.152Z,13.50
2023-05-02T16:46:01.500Z,13.70
2023-05-02T16:48:30.734Z,13.71
2023-05-02T16:50:58.724Z,13.76
2023-05-02T16:53:26.885Z,13.78
2023-05-02T16:55:54.761Z,13.68
2023-05-02T16:58:24.719Z,13.65
2023-05-02T17:00:52.613Z,13.49
2023-05-02T17:03:20.469Z,13.77
2023-05-02T17:05:49.701Z,13.79
2023-05-02T17:08:17.878Z,13.49
2023-05-02T17:10:49.666Z,13.71
2023-05-02T17:13:17.341Z,13.43
2023-05-02T17:15:45.139Z,13.59
2023-05-02T17:18:13.144Z,13.35
2023-05-02T17:20:41.492Z,13.41
2023-05-02T17:23:11.033Z,13.37
2023-05-02T17:25:39.453Z,13.27
2023-05-02T17:28:07.733Z,13.36
2023-05-02T17:30:35.640Z,13.53
2023-05-02T17:33:03.986Z,13.11
2023-05-02T17:35:32.898Z,13.31
2023-05-02T17:38:00.736Z,13.11
2023-05-02T17:40:31.675Z,12.99
2023-05-02T17:42:59.470Z,12.89
2023-05-02T17:45:28.986Z,13.28
2023-05-02T17:47:56.890Z,12.88
2023-05-02T17:50:24.699Z,12.87
2023-05-02T17:52:53.006Z,12.90
2023-05-02T17:55:21.255Z,13.01
2023-05-02T17:57:50.514Z,12.81
2023-05-02T18:00:18.770Z,12.80
2023-05-02T18:02:47.445Z,12.87
2023-05-02T18:05:15.285Z,12.66
2023-05-02T18:07:43.086Z,12.57
2023-05-02T18:10:11.456Z,12.51
2023-05-02T18:12:39.296Z,12.77
2023-05-02T18:15:09.546Z,12.64
2023-05-02T18:17:38.196Z,12.49
2023-05-02T18:20:07.222Z,12.37
2023-05-02T18:22:35.732Z,12.34
2023-05-02T18:25:03.880Z,12.16
2023-05-02T18:27:32.495Z,12.26
2023-05-02T18:30:00.724Z,12.28
2023-05-02T18:32:31.476Z,12.38
2023-05-02T18:34:59.680Z,12.23
2023-05-02T18:37:31.560Z,12.02
2023-05-02T18:39:59.567Z,11.91
2023-05-02T18:42:27.500Z,12.01
2023-05-02T18:45:13.418Z,11.78
2023-05-02T18:47:43.076Z,11.71
2023-05-02T18:50:11.179Z,11.68
2023-05-02T18:52:39.182Z,11.60
2023-05-02T18:55:07.891Z,11.44
2023-05-02T18:57:35.921Z,11.32
2023-05-02T19:00:06.179Z,11.27
2023-05-02T19:02:34.888Z,11.14
2023-05-02T19:05:06.701Z,11.11
2023-05-02T19:07:36.301Z,11.10
2023-05-02T19:10:06.831Z,11.03
2023-05-02T19:12:39.559Z,10.79
2023-05-02T19:15:09.626Z,10.87
2023-05-02T19:17:37.724Z,10.82
2023-05-02T19:20:08.810Z,10.72
2023-05-02T19:22:37.400Z,10.62
2023-05-02T19:25:09.551Z,10.59
2023-05-02T19:27:37.746Z,10.39
2023-05-02T19:30:09.155Z,10.35
2023-05-02T19:32:37.854Z,10.26
2023-05-02T19:35:09.088Z,10.18
2023-05-02T19:37:36.869Z,10.11
2023-05-02T19:40:05.140Z,10.12
2023-05-02T19:42:33.425Z,10.02
2023-05-02T19:45:01.519Z,9.99
2023-05-02T19:47:30.092Z,9.89
2023-05-02T19:49:57.871Z,9.85
2023-05-02T19:52:27.605Z,9.76
2023-05-02T19:54:55.580Z,9.74
2023-05-02T19:57:23.488Z,9.59
2023-05-02T19:59:51.886Z,9.68
2023-05-02T20:02:19.841Z,9.53
2023-05-02T20:04:47.833Z,9.48
2023-05-02T20:07:15.632Z,9.48
2023-05-02T20:09:45.315Z,9.43
2023-05-02T20:12:13.523Z,9.36
2023-05-02T20:14:41.800Z,9.25
2023-05-02T20:17:09.646Z,9.29
2023-05-02T20:19:37.430Z,9.23
2023-05-02T20:22:05.378Z,9.11
2023-05-02T20:24:33.145Z,9.22
2023-05-02T20:27:02.637Z,9.04
2023-05-02T20:29:30.591Z,9.00
2023-05-02T20:31:59.358Z,8.98
2023-05-02T20:34:27.313Z,9.03
2023-05-02T20:36:55.566Z,8.99
2023-05-02T20:39:24.583Z,8.94
2023-05-02T20:41:52.770Z,8.95
2023-05-02T20:44:22.531Z,8.96
2023-05-02T20:46:51.375Z,8.84
2023-05-02T20:49:19.366Z,8.76
2023-05-02T20:51:47.172Z,8.76
2023-05-02T20:54:14.952Z,8.77
2023-05-02T20:56:42.789Z,8.72
2023-05-02T20:59:11.523Z,8.75
2023-05-02T21:01:41.153Z,8.61
2023-05-02T21:04:09.135Z,8.61
2023-05-02T21:06:37.403Z,8.61
2023-05-02T21:09:05.365Z,8.60
2023-05-02T21:11:33.240Z,8.57
2023-05-02T21:14:02.452Z,8.52
2023-05-02T21:16:30.250Z,8.46
2023-05-02T21:18:59.589Z,8.36
2023-05-02T21:21:27.535Z,8.37
2023-05-02T21:23:55.508Z,8.32
2023-05-02T21:26:23.445Z,8.37
2023-05-02T21:28:51.347Z,8.39
2023-05-02T21:31:19.280Z,8.33
2023-05-02T21:33:47.077Z,8.20
2023-05-02T21:36:18.877Z,8.24
2023-05-02T21:38:47.354Z,8.16
2023-05-02T21:41:15.188Z,8.11
2023-05-02T21:43:43.069Z,8.08
2023-05-02T21:46:12.677Z,7.99
2023-05-02T21:48:52.209Z,7.94
2023-05-02T21:51:21.404Z,7.95
2023-05-02T21:53:49.286Z,7.81
2023-05-02T21:56:17.039Z,7.89
2023-05-02T21:58:47.825Z,7.74
2023-05-02T22:01:16.175Z,7.78
2023-05-02T22:03:44.256Z,7.84
2023-05-02T22:06:13.521Z,7.90
2023-05-02T22:08:45.011Z,7.93
2023-05-02T22:11:12.873Z,7.93
2023-05-02T22:13:41.161Z,7.72
2023-05-02T22:16:09.089Z,7.74
2023-05-02T22:18:36.964Z,7.74
2023-05-02T22:21:04.942Z,7.75
2023-05-02T22:23:49.979Z,7.53
2023-05-02T22:26:19.667Z,7.57
2023-05-02T22:28:47.391Z,7.66
2023-05-02T22:31:15.241Z,7.51
2023-05-02T22:33:43.131Z,7.41
2023-05-02T22:36:11.127Z,7.40
2023-05-02T22:38:39.664Z,7.39
2023-05-02T22:41:07.780Z,7.39
2023-05-02T22:43:37.363Z,7.35
2023-05-02T22:46:06.271Z,7.26
2023-05-02T22:48:34.217Z,7.23
2023-05-02T22:51:02.152Z,7.13
2023-05-02T22:53:30.171Z,7.11
2023-05-02T22:55:57.913Z,6.87
2023-05-02T22:58:25.682Z,6.86
2023-05-02T23:00:54.997Z,6.85
2023-05-02T23:03:23.003Z,6.66
2023-05-02T23:05:51.045Z,6.87
2023-05-02T23:08:18.854Z,6.91
2023-05-02T23:10:46.873Z,6.80
2023-05-02T23:13:14.693Z,6.75
2023-05-02T23:15:43.377Z,6.82
2023-05-02T23:18:12.943Z,6.77
2023-05-02T23:20:40.999Z,6.76
2023-05-02T23:23:08.881Z,6.72
2023-05-02T23:25:37.587Z,6.45
2023-05-02T23:28:05.632Z,6.56
2023-05-02T23:30:50.901Z,6.63
2023-05-02T23:33:31.663Z,6.58
2023-05-02T23:36:01.680Z,6.50
2023-05-02T23:38:29.844Z,6.40
2023-05-02T23:40:57.775Z,6.38
2023-05-02T23:43:25.836Z,6.43
2023-05-02T23:45:53.599Z,6.31
2023-05-02T23:48:34.613Z,6.34
2023-05-02T23:51:19.911Z,6.36
2023-05-02T23:53:52.614Z,6.49
2023-05-02T23:56:20.992Z,6.44
2023-05-02T23:58:48.798Z,6.36
